createdAt,value
2022-12-03T00:02:20.291Z,-1.49
2022-12-03T00:04:47.165Z,-1.52
2022-12-03T00:07:14.038Z,-1.49
2022-12-03T00:09:40.899Z,-1.53
2022-12-03T00:12:07.731Z,-1.51
2022-12-03T00:14:34.548Z,-1.51
2022-12-03T00:17:01.373Z,-1.49
2022-12-03T00:19:28.241Z,-1.55
2022-12-03T00:21:55.042Z,-1.54
2022-12-03T00:24:21.890Z,-1.52
2022-12-03T00:26:48.729Z,-1.58
2022-12-03T00:29:15.522Z,-1.55
2022-12-03T00:31:43.330Z,-1.56
2022-12-03T00:34:10.197Z,-1.61
2022-12-03T00:36:36.991Z,-1.64
2022-12-03T00:39:03.911Z,-1.60
2022-12-03T00:41:30.725Z,-1.67
2022-12-03T00:43:57.968Z,-1.56
2022-12-03T00:46:25.471Z,-1.62
2022-12-03T00:48:52.649Z,-1.61
2022-12-03T00:51:19.474Z,-1.65
2022-12-03T00:53:46.290Z,-1.62
2022-12-03T00:56:13.071Z,-1.63
2022-12-03T00:58:39.871Z,-1.68
2022-12-03T01:01:06.670Z,-1.63
2022-12-03T01:03:33.481Z,-1.62
2022-12-03T01:06:00.293Z,-1.63
2022-12-03T01:08:27.116Z,-1.63
2022-12-03T01:10:53.896Z,-1.76
2022-12-03T01:13:20.805Z,-1.75
2022-12-03T01:15:47.673Z,-1.75
2022-12-03T01:18:14.590Z,-1.69
2022-12-03T01:20:41.431Z,-1.73
2022-12-03T01:23:08.229Z,-1.71
2022-12-03T01:25:35.100Z,-1.71
2022-12-03T01:28:01.909Z,-1.78
2022-12-03T01:30:28.796Z,-1.73
2022-12-03T01:32:55.585Z,-1.75
2022-12-03T01:35:22.390Z,-1.75
2022-12-03T01:37:49.181Z,-1.73
2022-12-03T01:40:16.533Z,-1.74
2022-12-03T01:42:43.369Z,-1.77
2022-12-03T01:45:14.630Z,-1.80
2022-12-03T01:47:41.469Z,-1.79
2022-12-03T01:50:15.573Z,-1.75
2022-12-03T01:52:42.471Z,-1.76
2022-12-03T01:55:14.454Z,-1.78
2022-12-03T01:57:46.592Z,-1.80
2022-12-03T02:00:15.597Z,-1.86
2022-12-03T02:02:42.389Z,-1.91
2022-12-03T02:05:17.256Z,-1.83
2022-12-03T02:07:44.116Z,-1.84
2022-12-03T02:10:12.075Z,-1.92
2022-12-03T02:12:42.331Z,-1.85
2022-12-03T02:15:09.621Z,-1.93
2022-12-03T02:17:36.457Z,-1.89
2022-12-03T02:20:04.271Z,-1.90
2022-12-03T02:22:55.672Z,-1.92
2022-12-03T02:25:27.471Z,-1.92
2022-12-03T02:27:54.672Z,-1.94
2022-12-03T02:30:23.351Z,-1.94
2022-12-03T02:32:51.031Z,-1.91
2022-12-03T02:35:20.570Z,-1.92
2022-12-03T02:37:48.835Z,-2.00
2022-12-03T02:40:20.419Z,-2.04
2022-12-03T02:42:48.270Z,-1.97
2022-12-03T02:45:38.791Z,-2.09
2022-12-03T02:48:14.311Z,-2.05
2022-12-03T02:50:43.969Z,-2.00
2022-12-03T02:53:14.317Z,-2.03
2022-12-03T02:55:41.210Z,-2.07
2022-12-03T02:58:08.094Z,-2.01
2022-12-03T03:00:35.690Z,-2.00
2022-12-03T03:03:03.730Z,-1.98
2022-12-03T03:05:30.812Z,-2.02
2022-12-03T03:07:58.500Z,-1.98
2022-12-03T03:10:25.630Z,-2.02
2022-12-03T03:12:53.690Z,-1.97
2022-12-03T03:15:20.611Z,-1.96
2022-12-03T03:17:47.393Z,-1.98
2022-12-03T03:20:14.530Z,-1.97
2022-12-03T03:22:42.396Z,-1.97
2022-12-03T03:25:10.933Z,-2.09
2022-12-03T03:27:38.220Z,-2.04
2022-12-03T03:30:05.699Z,-2.04
2022-12-03T03:32:33.124Z,-2.07
2022-12-03T03:35:00.373Z,-2.07
2022-12-03T03:37:27.510Z,-2.03
2022-12-03T03:39:54.333Z,-2.12
2022-12-03T03:42:21.242Z,-2.05
2022-12-03T03:44:48.288Z,-2.14
2022-12-03T03:47:15.162Z,-2.12
2022-12-03T03:49:42.028Z,-2.04
2022-12-03T03:52:10.288Z,-2.12
2022-12-03T03:54:37.399Z,-2.04
2022-12-03T03:57:04.335Z,-2.04
2022-12-03T03:59:31.152Z,-2.03
2022-12-03T04:01:57.990Z,-2.06
2022-12-03T04:04:26.931Z,-2.12
2022-12-03T04:06:53.947Z,-2.07
2022-12-03T04:09:20.767Z,-2.07
2022-12-03T04:12:06.076Z,-2.15
2022-12-03T04:14:32.931Z,-2.06
2022-12-03T04:17:00.172Z,-2.13
2022-12-03T04:19:27.181Z,-2.13
2022-12-03T04:22:12.328Z,-2.14
2022-12-03T04:24:39.208Z,-2.17
2022-12-03T04:27:24.170Z,-2.21
2022-12-03T04:29:50.989Z,-2.11
2022-12-03T04:32:36.148Z,-2.14
2022-12-03T04:35:21.329Z,-2.13
2022-12-03T04:37:48.170Z,-2.12
2022-12-03T04:40:33.470Z,-2.11
2022-12-03T04:43:00.335Z,-2.18
2022-12-03T04:45:27.235Z,-2.11
2022-12-03T04:47:54.115Z,-2.11
2022-12-03T04:50:20.966Z,-2.16
2022-12-03T04:52:47.790Z,-2.10
2022-12-03T04:55:14.697Z,-2.14
2022-12-03T04:57:41.529Z,-2.11
2022-12-03T05:00:09.034Z,-2.11
2022-12-03T05:02:36.023Z,-2.13
2022-12-03T05:05:03.013Z,-2.12
2022-12-03T05:07:29.888Z,-2.15
2022-12-03T05:09:56.759Z,-2.17
2022-12-03T05:12:23.587Z,-2.13
2022-12-03T05:14:50.618Z,-2.12
2022-12-03T05:17:17.620Z,-2.21
2022-12-03T05:20:02.865Z,-2.12
2022-12-03T05:22:29.709Z,-2.12
2022-12-03T05:24:56.919Z,-2.13
2022-12-03T05:27:24.384Z,-2.09
2022-12-03T05:29:51.749Z,-2.07
2022-12-03T05:32:19.070Z,-2.06
2022-12-03T05:34:47.049Z,-2.14
2022-12-03T05:37:13.889Z,-2.12
2022-12-03T05:39:40.733Z,-2.09
2022-12-03T05:42:25.876Z,-2.06
2022-12-03T05:44:53.210Z,-2.08
2022-12-03T05:47:20.329Z,-2.08
2022-12-03T05:49:47.155Z,-2.08
2022-12-03T05:52:14.010Z,-2.10
2022-12-03T05:54:40.851Z,-2.16
2022-12-03T05:57:07.739Z,-2.11
2022-12-03T05:59:34.572Z,-2.19
2022-12-03T06:02:01.459Z,-2.16
2022-12-03T06:04:28.390Z,-2.09
2022-12-03T06:06:55.492Z,-2.10
2022-12-03T06:09:22.351Z,-2.13
2022-12-03T06:11:53.723Z,-2.10
2022-12-03T06:14:21.178Z,-2.10
2022-12-03T06:16:48.118Z,-2.13
2022-12-03T06:19:15.014Z,-2.10
2022-12-03T06:21:41.834Z,-2.16
2022-12-03T06:24:08.734Z,-2.11
2022-12-03T06:26:35.609Z,-2.08
2022-12-03T06:29:02.534Z,-2.11
2022-12-03T06:31:29.435Z,-2.05
2022-12-03T06:33:56.322Z,-2.17
2022-12-03T06:36:23.646Z,-2.05
2022-12-03T06:38:50.539Z,-2.05
2022-12-03T06:41:17.375Z,-2.05
2022-12-03T06:43:44.231Z,-2.11
2022-12-03T06:46:11.080Z,-2.14
2022-12-03T06:48:38.084Z,-2.07
2022-12-03T06:51:05.010Z,-2.07
2022-12-03T06:53:31.912Z,-2.13
2022-12-03T06:55:58.734Z,-2.02
2022-12-03T06:58:25.592Z,-2.10
2022-12-03T07:00:52.667Z,-1.99
2022-12-03T07:03:19.703Z,-1.99
2022-12-03T07:05:46.696Z,-1.99
2022-12-03T07:08:13.570Z,-2.04
2022-12-03T07:10:40.426Z,-2.00
2022-12-03T07:13:07.269Z,-1.95
2022-12-03T07:15:34.128Z,-1.96
2022-12-03T07:18:00.994Z,-1.94
2022-12-03T07:20:27.870Z,-1.97
2022-12-03T07:22:54.812Z,-1.93
2022-12-03T07:25:23.647Z,-1.94
2022-12-03T07:27:50.674Z,-1.92
2022-12-03T07:30:17.732Z,-1.90
2022-12-03T07:32:44.676Z,-1.92
2022-12-03T07:35:11.530Z,-1.92
2022-12-03T07:37:38.450Z,-1.85
2022-12-03T07:40:06.362Z,-1.85
2022-12-03T07:42:33.234Z,-1.85
2022-12-03T07:45:00.173Z,-1.85
2022-12-03T07:47:27.079Z,-1.86
2022-12-03T07:49:54.037Z,-1.95
2022-12-03T07:52:20.948Z,-1.85
2022-12-03T07:54:47.886Z,-1.79
2022-12-03T07:57:14.752Z,-1.87
2022-12-03T07:59:41.693Z,-1.78
2022-12-03T08:02:09.316Z,-1.77
2022-12-03T08:04:36.331Z,-1.74
2022-12-03T08:07:03.204Z,-1.70
2022-12-03T08:09:31.542Z,-1.74
2022-12-03T08:11:58.514Z,-1.64
2022-12-03T08:14:25.736Z,-1.64
2022-12-03T08:16:52.743Z,-1.66
2022-12-03T08:19:19.696Z,-1.53
2022-12-03T08:21:46.615Z,-1.51
2022-12-03T08:24:17.846Z,-1.41
2022-12-03T08:26:45.475Z,-1.46
2022-12-03T08:29:14.143Z,-1.40
2022-12-03T08:31:41.085Z,-1.37
2022-12-03T08:34:24.599Z,-1.33
2022-12-03T08:36:52.686Z,-1.37
2022-12-03T08:39:37.966Z,-1.35
2022-12-03T08:42:23.136Z,-1.30
2022-12-03T08:44:50.110Z,-1.38
2022-12-03T08:47:20.932Z,-1.27
2022-12-03T08:50:32.704Z,-1.26
2022-12-03T08:53:19.752Z,-1.24
2022-12-03T08:55:48.655Z,-1.29
2022-12-03T08:58:23.685Z,-1.27
2022-12-03T09:01:12.586Z,-1.23
2022-12-03T09:03:43.274Z,-1.24
2022-12-03T09:06:10.209Z,-1.22
2022-12-03T09:08:37.184Z,-1.25
2022-12-03T09:11:04.096Z,-1.24
2022-12-03T09:13:30.992Z,-1.30
2022-12-03T09:15:57.851Z,-1.26
2022-12-03T09:18:24.902Z,-1.25
2022-12-03T09:20:51.833Z,-1.23
2022-12-03T09:23:18.713Z,-1.34
2022-12-03T09:25:45.619Z,-1.30
2022-12-03T09:28:12.512Z,-1.27
2022-12-03T09:30:39.471Z,-1.24
2022-12-03T09:33:06.491Z,-1.30
2022-12-03T09:35:33.529Z,-1.30
2022-12-03T09:38:00.350Z,-1.23
2022-12-03T09:40:27.246Z,-1.22
2022-12-03T09:42:54.125Z,-1.25
2022-12-03T09:45:21.095Z,-1.25
2022-12-03T09:47:48.396Z,-1.22
2022-12-03T09:50:17.314Z,-1.20
2022-12-03T09:52:45.272Z,-1.20
2022-12-03T09:55:15.397Z,-1.15
2022-12-03T09:57:42.358Z,-1.11
2022-12-03T10:00:24.031Z,-1.14
2022-12-03T10:02:52.278Z,-1.06
2022-12-03T10:05:19.977Z,-1.04
2022-12-03T10:07:47.590Z,-1.03
2022-12-03T10:10:20.525Z,-1.06
2022-12-03T10:12:47.386Z,-0.99
2022-12-03T10:15:15.962Z,-1.01
2022-12-03T10:17:42.730Z,-1.10
2022-12-03T10:20:16.394Z,-0.98
2022-12-03T10:22:43.331Z,-0.98
2022-12-03T10:25:12.814Z,-1.00
2022-12-03T10:27:39.790Z,-0.96
2022-12-03T10:30:16.153Z,-0.91
2022-12-03T10:32:44.668Z,-0.87
2022-12-03T10:35:16.135Z,-0.98
2022-12-03T10:38:02.480Z,-0.86
2022-12-03T10:40:31.253Z,-0.86
2022-12-03T10:43:19.791Z,-0.84
2022-12-03T10:45:50.349Z,-0.82
2022-12-03T10:48:25.868Z,-0.78
2022-12-03T10:50:55.141Z,-0.83
2022-12-03T10:53:26.573Z,-0.84
2022-12-03T10:55:58.961Z,-0.75
2022-12-03T10:58:39.213Z,-0.72
2022-12-03T11:01:17.365Z,-0.69
2022-12-03T11:03:44.593Z,-0.73
2022-12-03T11:06:19.436Z,-0.68
2022-12-03T11:08:54.759Z,-0.68
2022-12-03T11:11:28.508Z,-0.66
2022-12-03T11:13:56.710Z,-0.74
2022-12-03T11:16:42.101Z,-0.65
2022-12-03T11:19:40.083Z,-0.66
2022-12-03T11:22:06.950Z,-0.64
2022-12-03T11:24:34.989Z,-0.67
2022-12-03T11:27:01.864Z,-0.62
2022-12-03T11:29:53.306Z,-0.59
2022-12-03T11:32:38.918Z,-0.57
2022-12-03T11:35:15.243Z,-0.58
2022-12-03T11:37:42.300Z,-0.56
2022-12-03T11:40:21.932Z,-0.49
2022-12-03T11:42:49.174Z,-0.46
2022-12-03T11:45:28.374Z,-0.40
2022-12-03T11:47:58.253Z,-0.36
2022-12-03T11:50:50.998Z,-0.34
2022-12-03T11:53:21.631Z,-0.30
2022-12-03T11:56:04.191Z,-0.32
2022-12-03T11:58:32.191Z,-0.26
2022-12-03T12:01:00.923Z,-0.25
2022-12-03T12:03:33.697Z,-0.31
2022-12-03T12:06:03.895Z,-0.26
2022-12-03T12:08:31.182Z,-0.30
2022-12-03T12:10:58.292Z,-0.35
2022-12-03T12:13:31.246Z,-0.31
2022-12-03T12:16:02.193Z,-0.32
2022-12-03T12:18:55.566Z,-0.34
2022-12-03T12:21:43.232Z,-0.34
2022-12-03T12:24:41.452Z,-0.36
2022-12-03T12:27:10.201Z,-0.36
2022-12-03T12:29:38.187Z,-0.51
2022-12-03T12:32:13.063Z,-0.36
2022-12-03T12:34:41.072Z,-0.39
2022-12-03T12:37:27.859Z,-0.37
2022-12-03T12:39:56.995Z,-0.39
2022-12-03T12:42:31.234Z,-0.38
2022-12-03T12:45:17.708Z,-0.39
2022-12-03T12:48:10.371Z,-0.42
2022-12-03T12:50:38.276Z,-0.44
2022-12-03T12:53:11.291Z,-0.41
2022-12-03T12:55:39.073Z,-0.43
2022-12-03T12:58:14.099Z,-0.44
2022-12-03T13:00:41.222Z,-0.46
2022-12-03T13:03:08.548Z,-0.47
2022-12-03T13:05:43.059Z,-0.49
2022-12-03T13:08:39.824Z,-0.52
2022-12-03T13:11:06.779Z,-0.60
2022-12-03T13:13:43.662Z,-0.56
2022-12-03T13:16:28.259Z,-0.56
2022-12-03T13:18:56.825Z,-0.59
2022-12-03T13:21:35.704Z,-0.59
2022-12-03T13:24:02.886Z,-0.60
2022-12-03T13:26:39.294Z,-0.68
2022-12-03T13:29:16.566Z,-0.62
2022-12-03T13:31:56.899Z,-0.68
2022-12-03T13:34:33.557Z,-0.72
2022-12-03T13:37:01.374Z,-0.70
2022-12-03T13:39:32.921Z,-0.65
2022-12-03T13:42:40.625Z,-0.69
2022-12-03T13:45:19.431Z,-0.65
2022-12-03T13:47:48.301Z,-0.66
2022-12-03T13:50:34.795Z,-0.67
2022-12-03T13:53:37.330Z,-0.67
2022-12-03T13:56:04.185Z,-0.67
2022-12-03T13:58:31.142Z,-0.67
2022-12-03T14:00:58.037Z,-0.65
2022-12-03T14:03:24.971Z,-0.68
2022-12-03T14:05:51.963Z,-0.64
2022-12-03T14:08:19.020Z,-0.60
2022-12-03T14:10:45.995Z,-0.58
2022-12-03T14:13:13.006Z,-0.65
2022-12-03T14:15:39.906Z,-0.57
2022-12-03T14:18:06.808Z,-0.63
2022-12-03T14:20:35.171Z,-0.61
2022-12-03T14:23:02.242Z,-0.65
2022-12-03T14:25:29.219Z,-0.67
2022-12-03T14:27:56.215Z,-0.69
2022-12-03T14:30:23.257Z,-0.70
2022-12-03T14:32:50.159Z,-0.68
2022-12-03T14:35:17.062Z,-0.77
2022-12-03T14:37:44.016Z,-0.84
2022-12-03T14:40:13.232Z,-0.79
2022-12-03T14:42:43.563Z,-0.80
2022-12-03T14:45:10.701Z,-0.82
2022-12-03T14:47:37.558Z,-0.85
2022-12-03T14:50:05.693Z,-0.98
2022-12-03T14:52:32.815Z,-0.89
2022-12-03T14:54:59.796Z,-0.90
2022-12-03T14:57:26.908Z,-1.00
2022-12-03T14:59:54.237Z,-1.00
2022-12-03T15:02:21.461Z,-0.98
2022-12-03T15:04:48.467Z,-0.97
2022-12-03T15:07:15.624Z,-1.01
2022-12-03T15:09:42.535Z,-1.06
2022-12-03T15:12:09.451Z,-1.04
2022-12-03T15:14:36.365Z,-1.05
2022-12-03T15:17:03.387Z,-1.11
2022-12-03T15:19:30.330Z,-1.06
2022-12-03T15:21:57.247Z,-1.09
2022-12-03T15:24:24.242Z,-1.10
2022-12-03T15:26:52.461Z,-1.10
2022-12-03T15:29:22.073Z,-1.12
2022-12-03T15:31:49.061Z,-1.12
2022-12-03T15:34:22.079Z,-1.15
2022-12-03T15:36:49.660Z,-1.23
2022-12-03T15:39:16.543Z,-1.13
2022-12-03T15:41:43.431Z,-1.15
2022-12-03T15:44:10.370Z,-1.14
2022-12-03T15:46:37.284Z,-1.13
2022-12-03T15:49:04.298Z,-1.17
2022-12-03T15:51:31.274Z,-1.18
2022-12-03T15:53:58.217Z,-1.14
2022-12-03T15:56:25.172Z,-1.17
2022-12-03T15:58:53.619Z,-1.20
2022-12-03T16:01:20.678Z,-1.24
2022-12-03T16:03:47.676Z,-1.27
2022-12-03T16:06:15.021Z,-1.24
2022-12-03T16:08:42.085Z,-1.17
2022-12-03T16:11:09.030Z,-1.24
2022-12-03T16:13:36.040Z,-1.20
2022-12-03T16:16:02.996Z,-1.20
2022-12-03T16:18:30.215Z,-1.20
2022-12-03T16:20:57.165Z,-1.29
2022-12-03T16:23:24.141Z,-1.24
2022-12-03T16:25:51.108Z,-1.18
2022-12-03T16:28:18.028Z,-1.19
2022-12-03T16:30:45.059Z,-1.27
2022-12-03T16:33:12.131Z,-1.27
2022-12-03T16:35:39.018Z,-1.23
2022-12-03T16:38:05.958Z,-1.25
2022-12-03T16:40:32.867Z,-1.27
2022-12-03T16:42:59.812Z,-1.20
2022-12-03T16:45:29.680Z,-1.22
2022-12-03T16:47:56.540Z,-1.24
2022-12-03T16:50:29.546Z,-1.23
2022-12-03T16:52:57.029Z,-1.21
2022-12-03T16:55:24.130Z,-1.16
2022-12-03T16:57:51.116Z,-1.18
2022-12-03T17:00:18.279Z,-1.18
2022-12-03T17:02:45.237Z,-1.20
2022-12-03T17:05:12.340Z,-1.15
2022-12-03T17:07:39.360Z,-1.26
2022-12-03T17:10:07.084Z,-1.20
2022-12-03T17:13:07.233Z,-1.15
2022-12-03T17:15:20.920Z,-1.14
2022-12-03T17:17:47.886Z,-1.14
2022-12-03T17:20:14.910Z,-1.14
2022-12-03T17:22:42.161Z,-1.14
2022-12-03T17:25:09.912Z,-1.15
2022-12-03T17:27:42.081Z,-1.23
2022-12-03T17:30:12.162Z,-1.17
2022-12-03T17:32:39.176Z,-1.13
2022-12-03T17:35:06.596Z,-1.17
2022-12-03T17:37:33.510Z,-1.16
2022-12-03T17:40:00.550Z,-1.18
2022-12-03T17:42:27.475Z,-1.20
2022-12-03T17:44:54.411Z,-1.16
2022-12-03T17:47:21.324Z,-1.22
2022-12-03T17:49:48.246Z,-1.16
2022-12-03T17:52:15.117Z,-1.26
2022-12-03T17:55:09.039Z,-1.21
2022-12-03T17:57:28.877Z,-1.18
2022-12-03T17:59:56.195Z,-1.17
2022-12-03T18:02:23.486Z,-1.20
2022-12-03T18:04:50.414Z,-1.14
2022-12-03T18:07:17.352Z,-1.19
2022-12-03T18:09:44.338Z,-1.15
2022-12-03T18:12:11.416Z,-1.14
2022-12-03T18:14:38.243Z,-1.13
2022-12-03T18:17:05.005Z,-1.18
2022-12-03T18:19:31.748Z,-1.14
2022-12-03T18:21:58.558Z,-1.14
2022-12-03T18:24:25.461Z,-1.15
2022-12-03T18:26:52.269Z,-1.20
2022-12-03T18:29:19.112Z,-1.14
2022-12-03T18:31:46.129Z,-1.17
2022-12-03T18:34:13.106Z,-1.19
2022-12-03T18:36:39.890Z,-1.21
2022-12-03T18:39:09.170Z,-1.20
2022-12-03T18:41:36.644Z,-1.22
2022-12-03T18:44:04.254Z,-1.15
2022-12-03T18:46:52.498Z,-1.16
2022-12-03T18:49:17.840Z,-1.21
2022-12-03T18:51:44.709Z,-1.16
2022-12-03T18:54:12.619Z,-1.15
2022-12-03T18:56:40.661Z,-1.14
2022-12-03T18:59:07.862Z,-1.23
2022-12-03T19:01:34.828Z,-1.20
2022-12-03T19:04:01.691Z,-1.14
2022-12-03T19:06:29.403Z,-1.15
2022-12-03T19:08:56.329Z,-1.14
2022-12-03T19:11:23.150Z,-1.12
2022-12-03T19:13:50.063Z,-1.14
2022-12-03T19:16:17.324Z,-1.12
2022-12-03T19:18:44.332Z,-1.14
2022-12-03T19:21:13.642Z,-1.21
2022-12-03T19:23:40.411Z,-1.14
2022-12-03T19:26:08.560Z,-1.16
2022-12-03T19:28:35.338Z,-1.21
2022-12-03T19:31:11.842Z,-1.14
2022-12-03T19:33:38.705Z,-1.13
2022-12-03T19:36:06.681Z,-1.12
2022-12-03T19:38:33.637Z,-1.13
2022-12-03T19:41:08.487Z,-1.21
2022-12-03T19:43:36.584Z,-1.15
2022-12-03T19:46:10.337Z,-1.11
2022-12-03T19:48:38.072Z,-1.11
2022-12-03T19:51:32.555Z,-1.23
2022-12-03T19:53:51.894Z,-1.16
2022-12-03T19:56:19.271Z,-1.14
2022-12-03T19:58:46.548Z,-1.11
2022-12-03T20:01:21.558Z,-1.11
2022-12-03T20:03:49.671Z,-1.11
2022-12-03T20:06:17.498Z,-1.12
2022-12-03T20:08:44.371Z,-1.11
2022-12-03T20:11:14.208Z,-1.11
2022-12-03T20:13:41.488Z,-1.15
2022-12-03T20:16:12.129Z,-1.12
2022-12-03T20:18:43.096Z,-1.22
2022-12-03T20:21:10.466Z,-1.13
2022-12-03T20:23:37.644Z,-1.10
2022-12-03T20:26:11.915Z,-1.10
2022-12-03T20:28:38.703Z,-1.12
2022-12-03T20:31:25.452Z,-1.07
2022-12-03T20:33:54.311Z,-1.06
2022-12-03T20:36:22.663Z,-1.08
2022-12-03T20:38:53.527Z,-1.11
2022-12-03T20:41:20.885Z,-1.07
2022-12-03T20:43:47.859Z,-1.07
2022-12-03T20:46:29.385Z,-1.06
2022-12-03T20:48:56.461Z,-1.25
2022-12-03T20:51:25.399Z,-1.06
2022-12-03T20:53:52.501Z,-1.12
2022-12-03T20:56:27.633Z,-1.06
2022-12-03T20:58:54.513Z,-1.05
2022-12-03T21:01:23.464Z,-1.12
2022-12-03T21:03:50.414Z,-1.05
2022-12-03T21:06:17.334Z,-1.11
2022-12-03T21:08:44.504Z,-1.11
2022-12-03T21:11:13.086Z,-1.12
2022-12-03T21:13:44.152Z,-1.05
2022-12-03T21:16:13.578Z,-1.04
2022-12-03T21:18:40.443Z,-1.05
2022-12-03T21:21:07.432Z,-1.13
2022-12-03T21:23:34.462Z,-1.04
2022-12-03T21:26:02.841Z,-1.11
2022-12-03T21:28:29.828Z,-1.08
2022-12-03T21:31:02.851Z,-1.02
2022-12-03T21:33:30.092Z,-1.04
2022-12-03T21:35:57.150Z,-1.02
2022-12-03T21:38:24.498Z,-1.04
2022-12-03T21:40:51.367Z,-1.02
2022-12-03T21:43:18.198Z,-1.02
2022-12-03T21:45:45.216Z,-1.04
2022-12-03T21:48:12.325Z,-1.01
2022-12-03T21:50:39.222Z,-1.01
2022-12-03T21:53:06.044Z,-0.99
2022-12-03T21:55:32.902Z,-1.09
2022-12-03T21:57:59.769Z,-0.99
2022-12-03T22:00:26.706Z,-1.10
2022-12-03T22:02:53.648Z,-0.98
2022-12-03T22:05:20.512Z,-1.03
2022-12-03T22:07:47.423Z,-0.98
2022-12-03T22:10:14.359Z,-0.98
2022-12-03T22:12:42.033Z,-0.97
2022-12-03T22:15:18.175Z,-1.05
2022-12-03T22:17:45.377Z,-0.97
2022-12-03T22:20:12.477Z,-1.05
2022-12-03T22:22:39.253Z,-1.00
2022-12-03T22:25:06.127Z,-1.00
2022-12-03T22:27:33.202Z,-0.98
2022-12-03T22:29:59.967Z,-1.02
2022-12-03T22:32:27.048Z,-0.99
2022-12-03T22:34:53.840Z,-0.94
2022-12-03T22:37:20.601Z,-1.03
2022-12-03T22:39:47.412Z,-0.94
2022-12-03T22:42:14.180Z,-0.93
2022-12-03T22:44:40.980Z,-0.99
2022-12-03T22:47:07.787Z,-0.97
2022-12-03T22:49:34.638Z,-0.93
2022-12-03T22:52:01.402Z,-0.92
2022-12-03T22:54:28.203Z,-0.90
2022-12-03T22:56:54.970Z,-1.09
2022-12-03T22:59:21.771Z,-0.91
2022-12-03T23:01:48.740Z,-0.91
2022-12-03T23:04:15.634Z,-0.91
2022-12-03T23:06:43.699Z,-0.91
2022-12-03T23:09:10.754Z,-0.88
2022-12-03T23:11:37.934Z,-0.89
2022-12-03T23:14:04.820Z,-0.88
2022-12-03T23:16:32.690Z,-1.08
2022-12-03T23:19:00.127Z,-0.93
2022-12-03T23:21:30.261Z,-0.96
2022-12-03T23:23:58.733Z,-0.89
2022-12-03T23:26:25.763Z,-0.92
2022-12-03T23:28:52.763Z,-0.94
2022-12-03T23:31:24.448Z,-0.86
2022-12-03T23:33:53.122Z,-0.87
2022-12-03T23:36:20.472Z,-0.86
2022-12-03T23:38:47.349Z,-0.86
2022-12-03T23:41:15.933Z,-0.88
2022-12-03T23:43:42.887Z,-0.92
2022-12-03T23:46:14.831Z,-0.89
2022-12-03T23:48:42.221Z,-0.89
2022-12-03T23:51:10.731Z,-0.89
2022-12-03T23:53:37.973Z,-0.88
2022-12-03T23:56:12.784Z,-0.83
2022-12-03T23:58:39.792Z,-0.87
